createdAt,value
2019-04-11T00:01:03.884Z,100104.16
2019-04-11T00:03:33.540Z,100108.31
2019-04-11T00:06:03.374Z,100102.02
2019-04-11T00:08:32.652Z,100108.36
2019-04-11T00:11:01.855Z,100112.39
2019-04-11T00:13:33.414Z,100108.61
2019-04-11T00:16:02.165Z,100110.73
2019-04-11T00:18:32.451Z,100111.30
2019-04-11T00:21:01.779Z,100116.71
2019-04-11T00:23:32.302Z,100119.38
2019-04-11T00:26:02.124Z,100121.22
2019-04-11T00:28:31.960Z,100122.09
2019-04-11T00:31:01.072Z,100123.02
2019-04-11T00:33:30.125Z,100122.37
2019-04-11T00:35:59.896Z,100134.80
2019-04-11T00:38:29.949Z,100129.36
2019-04-11T00:40:59.706Z,100125.13
2019-04-11T00:43:35.836Z,100129.24
2019-04-11T00:46:00.133Z,100126.84
2019-04-11T00:48:30.328Z,100121.37
2019-04-11T00:50:59.369Z,100115.85
2019-04-11T00:53:28.350Z,100114.46
2019-04-11T00:55:57.735Z,100114.17
2019-04-11T00:58:27.751Z,100115.86
2019-04-11T01:00:57.562Z,100113.43
2019-04-11T01:03:26.582Z,100116.59
2019-04-11T01:05:56.682Z,100110.99
2019-04-11T01:08:25.777Z,100118.74
2019-04-11T01:10:55.249Z,100123.77
2019-04-11T01:13:24.288Z,100120.19
2019-04-11T01:16:02.902Z,100120.09
2019-04-11T01:18:32.240Z,100120.62
2019-04-11T01:21:02.042Z,100128.05
2019-04-11T01:23:31.175Z,100126.77
2019-04-11T01:26:01.189Z,100133.16
2019-04-11T01:28:31.010Z,100128.70
2019-04-11T01:31:03.686Z,100134.03
2019-04-11T01:33:32.826Z,100142.87
2019-04-11T01:36:02.693Z,100139.61
2019-04-11T01:38:33.270Z,100143.15
2019-04-11T01:41:02.516Z,100140.34
2019-04-11T01:43:32.434Z,100146.23
2019-04-11T01:46:02.169Z,100139.80
2019-04-11T01:48:38.192Z,100139.14
2019-04-11T01:51:07.540Z,100148.83
2019-04-11T01:53:37.366Z,100147.38
2019-04-11T01:56:07.207Z,100151.05
2019-04-11T01:58:36.375Z,100148.86
2019-04-11T02:01:19.319Z,100151.40
2019-04-11T02:03:55.300Z,100149.23
2019-04-11T02:06:25.702Z,100150.73
2019-04-11T02:08:55.631Z,100149.27
2019-04-11T02:11:25.622Z,100147.80
2019-04-11T02:14:05.150Z,100153.61
2019-04-11T02:16:25.393Z,100145.99
2019-04-11T02:18:54.597Z,100148.31
2019-04-11T02:21:23.868Z,100139.88
2019-04-11T02:24:09.891Z,100149.68
2019-04-11T02:26:38.852Z,100153.21
2019-04-11T02:29:08.949Z,100157.04
2019-04-11T02:31:38.994Z,100158.53
2019-04-11T02:34:08.612Z,100158.53
2019-04-11T02:36:38.412Z,100164.66
2019-04-11T02:39:12.917Z,100168.98
2019-04-11T02:41:40.120Z,100168.01
2019-04-11T02:44:27.168Z,100169.65
2019-04-11T02:46:44.942Z,100169.98
2019-04-11T02:49:11.210Z,100167.17
2019-04-11T02:51:40.290Z,100174.95
2019-04-11T02:54:09.310Z,100172.30
2019-04-11T02:56:38.409Z,100169.97
2019-04-11T02:59:08.901Z,100174.77
2019-04-11T03:01:38.069Z,100177.42
2019-04-11T03:04:07.584Z,100180.72
2019-04-11T03:06:36.941Z,100172.41
2019-04-11T03:09:07.851Z,100180.37
2019-04-11T03:11:38.505Z,100180.41
2019-04-11T03:14:09.603Z,100176.22
2019-04-11T03:16:53.347Z,100173.25
2019-04-11T03:19:25.381Z,100186.32
2019-04-11T03:21:43.743Z,100180.48
2019-04-11T03:24:13.030Z,100179.80
2019-04-11T03:26:43.584Z,100203.30
2019-04-11T03:29:12.992Z,100185.84
2019-04-11T03:32:17.737Z,100186.84
2019-04-11T03:35:03.905Z,100193.14
2019-04-11T03:37:19.288Z,100193.14
2019-04-11T03:39:32.369Z,100188.16
2019-04-11T03:41:59.030Z,100182.95
2019-04-11T03:44:23.412Z,100182.95
2019-04-11T03:47:01.224Z,100204.80
2019-04-11T03:49:29.319Z,100203.61
2019-04-11T03:51:50.210Z,100207.73
2019-04-11T03:54:21.085Z,100210.38
2019-04-11T03:56:51.332Z,100210.38
2019-04-11T03:59:22.924Z,100211.70
2019-04-11T04:01:54.012Z,100209.74
2019-04-11T04:04:23.869Z,100209.74
2019-04-11T04:06:55.237Z,100215.62
2019-04-11T04:09:26.337Z,100215.62
2019-04-11T04:11:56.889Z,100218.58
2019-04-11T04:14:34.707Z,100216.53
2019-04-11T04:17:30.728Z,100216.53
2019-04-11T04:20:12.778Z,100212.44
2019-04-11T04:22:54.591Z,100219.73
2019-04-11T04:25:24.312Z,100219.73
2019-04-11T04:27:54.646Z,100226.81
2019-04-11T04:30:24.823Z,100231.24
2019-04-11T04:32:56.605Z,100231.37
2019-04-11T04:35:28.381Z,100228.94
2019-04-11T04:37:59.139Z,100239.38
2019-04-11T04:40:47.843Z,100248.83
2019-04-11T04:43:01.214Z,100248.83
2019-04-11T04:45:49.384Z,100247.48
2019-04-11T04:48:07.233Z,100248.95
2019-04-11T04:50:34.080Z,100248.95
2019-04-11T04:53:05.016Z,100248.68
2019-04-11T04:55:34.956Z,100262.17
2019-04-11T04:58:04.937Z,100247.14
2019-04-11T05:00:34.821Z,100247.14
2019-04-11T05:03:05.419Z,100265.89
2019-04-11T05:05:35.755Z,100260.47
2019-04-11T05:08:06.156Z,100260.47
2019-04-11T05:10:35.952Z,100264.36
2019-04-11T05:13:05.689Z,100266.55
2019-04-11T05:15:34.767Z,100271.91
2019-04-11T05:18:04.263Z,100269.00
2019-04-11T05:20:34.274Z,100269.88
2019-04-11T05:23:04.333Z,100279.56
2019-04-11T05:25:33.383Z,100279.45
2019-04-11T05:28:02.401Z,100285.98
2019-04-11T05:30:31.550Z,100285.98
2019-04-11T05:33:01.827Z,100290.04
2019-04-11T05:35:32.842Z,100286.90
2019-04-11T05:38:02.012Z,100301.05
2019-04-11T05:40:32.419Z,100297.15
2019-04-11T05:43:01.815Z,100304.59
2019-04-11T05:45:31.788Z,100300.95
2019-04-11T05:48:03.103Z,100300.95
2019-04-11T05:50:34.161Z,100311.38
2019-04-11T05:53:05.462Z,100311.38
2019-04-11T05:55:41.536Z,100307.86
2019-04-11T05:58:12.294Z,100306.45
2019-04-11T06:01:01.341Z,100308.48
2019-04-11T06:03:30.435Z,100305.41
2019-04-11T06:06:06.938Z,100305.41
2019-04-11T06:08:35.890Z,100314.45
2019-04-11T06:11:24.025Z,100311.15
2019-04-11T06:14:06.147Z,100318.17
2019-04-11T06:16:44.884Z,100318.17
2019-04-11T06:19:25.722Z,100325.35
2019-04-11T06:21:58.741Z,100326.86
2019-04-11T06:25:00.575Z,100331.33
2019-04-11T06:27:53.575Z,100336.16
2019-04-11T06:30:40.205Z,100333.30
2019-04-11T06:33:30.840Z,100330.09
2019-04-11T06:36:23.163Z,100329.77
2019-04-11T06:39:27.415Z,100345.55
2019-04-11T06:42:24.545Z,100337.51
2019-04-11T06:45:15.545Z,100330.65
2019-04-11T06:47:54.757Z,100332.48
2019-04-11T06:50:58.202Z,100338.77
2019-04-11T06:53:34.430Z,100343.88
2019-04-11T06:56:20.944Z,100341.21
2019-04-11T06:59:00.017Z,100344.84
2019-04-11T07:01:30.320Z,100347.41
2019-04-11T07:04:21.935Z,100345.20
2019-04-11T07:06:53.664Z,100341.45
2019-04-11T07:09:49.331Z,100347.47
2019-04-11T07:12:26.243Z,100351.61
2019-04-11T07:15:20.933Z,100352.72
2019-04-11T07:18:07.916Z,100343.72
2019-04-11T07:20:45.786Z,100350.17
2019-04-11T07:23:32.948Z,100353.19
2019-04-11T07:26:12.243Z,100359.95
2019-04-11T07:29:04.392Z,100347.71
2019-04-11T07:31:58.369Z,100348.78
2019-04-11T07:34:53.112Z,100354.59
2019-04-11T07:37:32.451Z,100349.66
2019-04-11T07:40:24.286Z,100355.98
2019-04-11T07:43:15.777Z,100352.32
2019-04-11T07:46:17.042Z,100352.20
2019-04-11T07:48:46.873Z,100358.98
2019-04-11T07:51:40.976Z,100368.62
2019-04-11T07:54:22.212Z,100359.61
2019-04-11T07:57:12.887Z,100360.45
2019-04-11T08:00:05.914Z,100359.36
2019-04-11T08:02:53.227Z,100368.52
2019-04-11T08:05:40.987Z,100362.09
2019-04-11T08:08:25.749Z,100361.44
2019-04-11T08:11:17.807Z,100370.48
2019-04-11T08:14:06.347Z,100365.45
2019-04-11T08:17:03.826Z,100359.82
2019-04-11T08:19:51.251Z,100360.92
2019-04-11T08:22:43.984Z,100367.62
2019-04-11T08:25:41.897Z,100362.90
2019-04-11T08:28:14.087Z,100368.97
2019-04-11T08:31:11.064Z,100366.63
2019-04-11T08:33:40.580Z,100368.17
2019-04-11T08:36:33.861Z,100369.84
2019-04-11T08:39:08.950Z,100377.39
2019-04-11T08:41:49.664Z,100375.97
2019-04-11T08:44:22.295Z,100371.19
2019-04-11T08:46:56.264Z,100376.86
2019-04-11T08:49:33.724Z,100370.92
2019-04-11T08:52:07.595Z,100377.13
2019-04-11T08:54:53.971Z,100375.03
2019-04-11T08:57:34.002Z,100372.71
2019-04-11T09:00:26.188Z,100372.73
2019-04-11T09:03:23.894Z,100369.23
2019-04-11T09:06:04.241Z,100374.80
2019-04-11T09:09:01.177Z,100373.19
2019-04-11T09:11:39.175Z,100368.53
2019-04-11T09:14:28.418Z,100364.57
2019-04-11T09:17:01.803Z,100371.59
2019-04-11T09:19:39.056Z,100371.52
2019-04-11T09:22:25.796Z,100370.99
2019-04-11T09:25:14.989Z,100365.37
2019-04-11T09:27:47.594Z,100368.95
2019-04-11T09:30:25.112Z,100372.43
2019-04-11T09:33:19.153Z,100364.48
2019-04-11T09:35:49.218Z,100369.41
2019-04-11T09:38:18.605Z,100368.31
2019-04-11T09:40:54.296Z,100365.97
2019-04-11T09:43:26.268Z,100370.55
2019-04-11T09:46:14.339Z,100373.72
2019-04-11T09:48:53.849Z,100368.75
2019-04-11T09:51:47.817Z,100372.27
2019-04-11T09:54:28.338Z,100367.05
2019-04-11T09:57:22.833Z,100374.83
2019-04-11T10:00:12.376Z,100372.43
2019-04-11T10:03:00.821Z,100371.20
2019-04-11T10:05:44.710Z,100362.98
2019-04-11T10:08:31.164Z,100368.81
2019-04-11T10:11:32.493Z,100370.47
2019-04-11T10:14:07.353Z,100366.49
2019-04-11T10:17:13.349Z,100364.36
2019-04-11T10:19:44.648Z,100370.03
2019-04-11T10:22:36.209Z,100371.28
2019-04-11T10:25:35.136Z,100362.72
2019-04-11T10:28:29.693Z,100370.19
2019-04-11T10:31:10.670Z,100363.75
2019-04-11T10:34:06.066Z,100372.45
2019-04-11T10:37:09.745Z,100372.55
2019-04-11T10:40:01.829Z,100368.81
2019-04-11T10:42:32.723Z,100360.86
2019-04-11T10:45:18.763Z,100366.42
2019-04-11T10:47:49.407Z,100362.57
2019-04-11T10:50:37.650Z,100372.29
2019-04-11T10:53:06.894Z,100357.02
2019-04-11T10:55:53.777Z,100358.56
2019-04-11T10:58:26.859Z,100366.33
2019-04-11T11:01:15.760Z,100362.08
2019-04-11T11:03:57.447Z,100362.78
2019-04-11T11:06:27.969Z,100360.64
2019-04-11T11:09:19.914Z,100366.12
2019-04-11T11:12:16.973Z,100366.84
2019-04-11T11:15:19.993Z,100367.02
2019-04-11T11:20:54.010Z,100375.83
2019-04-11T11:23:35.321Z,100371.83
2019-04-11T11:26:26.241Z,100368.52
2019-04-11T11:29:15.480Z,100365.22
2019-04-11T11:32:03.334Z,100384.45
2019-04-11T11:34:39.385Z,100381.38
2019-04-11T11:37:29.189Z,100375.66
2019-04-11T11:40:14.557Z,100378.11
2019-04-11T11:43:10.586Z,100385.73
2019-04-11T11:45:59.026Z,100373.68
2019-04-11T11:48:39.658Z,100378.14
2019-04-11T11:51:17.307Z,100372.70
2019-04-11T11:53:55.306Z,100378.22
2019-04-11T11:56:24.543Z,100379.61
2019-04-11T11:59:06.996Z,100381.92
2019-04-11T12:01:43.293Z,100370.36
2019-04-11T12:04:26.221Z,100370.84
2019-04-11T12:07:02.093Z,100369.30
2019-04-11T12:09:46.780Z,100368.35
2019-04-11T12:12:21.832Z,100380.91
2019-04-11T12:15:09.740Z,100374.47
2019-04-11T12:18:15.800Z,100376.67
2019-04-11T12:20:49.365Z,100378.08
2019-04-11T12:24:02.190Z,100383.34
2019-04-11T12:26:30.402Z,100369.36
2019-04-11T12:29:15.737Z,100369.20
2019-04-11T12:31:48.504Z,100361.69
2019-04-11T12:34:36.742Z,100374.23
2019-04-11T12:37:10.581Z,100373.91
2019-04-11T12:39:56.193Z,100374.66
2019-04-11T12:42:28.922Z,100368.45
2019-04-11T12:45:15.310Z,100366.25
2019-04-11T12:47:47.545Z,100365.66
2019-04-11T12:50:34.817Z,100367.92
2019-04-11T12:53:15.360Z,100369.72
2019-04-11T12:56:18.665Z,100358.80
2019-04-11T12:59:15.718Z,100363.76
2019-04-11T13:02:06.609Z,100363.58
2019-04-11T13:04:37.767Z,100364.64
2019-04-11T13:07:34.889Z,100357.20
2019-04-11T13:10:18.957Z,100353.78
2019-04-11T13:13:19.272Z,100362.34
2019-04-11T13:15:55.795Z,100353.73
2019-04-11T13:18:44.149Z,100353.07
2019-04-11T13:21:22.992Z,100339.81
2019-04-11T13:24:11.283Z,100340.28
2019-04-11T13:26:59.491Z,100346.56
2019-04-11T13:30:02.509Z,100352.70
2019-04-11T13:32:51.717Z,100349.02
2019-04-11T13:35:38.505Z,100343.73
2019-04-11T13:38:10.034Z,100341.47
2019-04-11T13:41:03.176Z,100346.89
2019-04-11T13:43:47.684Z,100339.59
2019-04-11T13:46:47.580Z,100350.33
2019-04-11T13:49:34.461Z,100339.94
2019-04-11T13:52:28.877Z,100333.90
2019-04-11T13:55:11.793Z,100339.56
2019-04-11T13:57:59.956Z,100335.44
2019-04-11T14:00:46.643Z,100337.77
2019-04-11T14:03:43.521Z,100339.20
2019-04-11T14:06:32.521Z,100336.81
2019-04-11T14:09:20.806Z,100335.63
2019-04-11T14:11:51.429Z,100338.45
2019-04-11T14:14:45.655Z,100328.03
2019-04-11T14:17:33.603Z,100333.77
2019-04-11T14:20:30.802Z,100332.73
2019-04-11T14:23:34.197Z,100328.97
2019-04-11T14:26:29.491Z,100327.41
2019-04-11T14:29:16.188Z,100325.98
2019-04-11T14:32:08.946Z,100327.01
2019-04-11T14:34:59.781Z,100337.80
2019-04-11T14:37:43.001Z,100333.28
2019-04-11T14:40:34.353Z,100332.33
2019-04-11T14:43:37.237Z,100333.20
2019-04-11T14:46:25.355Z,100330.00
2019-04-11T14:48:56.701Z,100325.98
2019-04-11T14:51:46.254Z,100339.38
2019-04-11T14:54:18.573Z,100332.50
2019-04-11T14:56:53.034Z,100339.23
2019-04-11T14:59:39.431Z,100333.47
2019-04-11T15:02:19.378Z,100327.20
2019-04-11T15:05:13.821Z,100334.58
2019-04-11T15:07:46.093Z,100334.14
2019-04-11T15:10:45.715Z,100325.77
2019-04-11T15:13:17.944Z,100321.63
2019-04-11T15:16:05.227Z,100328.16
2019-04-11T15:18:37.305Z,100328.14
2019-04-11T15:21:15.014Z,100326.36
2019-04-11T15:23:47.382Z,100324.94
2019-04-11T15:26:53.488Z,100334.41
2019-04-11T15:29:27.042Z,100336.61
2019-04-11T15:32:21.140Z,100336.41
2019-04-11T15:34:55.579Z,100340.87
2019-04-11T15:37:42.214Z,100339.88
2019-04-11T15:40:13.161Z,100346.19
2019-04-11T15:43:04.249Z,100343.34
2019-04-11T15:45:52.235Z,100335.05
2019-04-11T15:48:37.942Z,100336.98
2019-04-11T15:51:38.168Z,100333.79
2019-04-11T15:54:26.319Z,100329.03
2019-04-11T15:57:05.087Z,100338.88
2019-04-11T15:59:54.358Z,100330.88
2019-04-11T16:02:42.508Z,100337.48
2019-04-11T16:05:31.755Z,100339.58
2019-04-11T16:08:23.918Z,100338.47
2019-04-11T16:11:12.480Z,100346.34
2019-04-11T16:14:09.664Z,100344.58
2019-04-11T16:16:57.100Z,100351.91
2019-04-11T16:20:00.459Z,100340.23
2019-04-11T16:22:43.175Z,100338.47
2019-04-11T16:25:17.332Z,100338.72
2019-04-11T16:28:11.426Z,100332.92
2019-04-11T16:30:51.482Z,100338.65
2019-04-11T16:33:39.579Z,100334.17
2019-04-11T16:36:12.628Z,100346.28
2019-04-11T16:38:49.758Z,100342.98
2019-04-11T16:41:36.945Z,100339.98
2019-04-11T16:44:09.614Z,100341.92
2019-04-11T16:46:56.407Z,100340.25
2019-04-11T16:49:26.034Z,100348.66
2019-04-11T16:51:55.668Z,100346.14
2019-04-11T16:54:24.807Z,100352.48
2019-04-11T16:56:53.917Z,100352.53
2019-04-11T16:59:23.032Z,100348.96
2019-04-11T17:01:53.823Z,100348.62
2019-04-11T17:04:25.997Z,100355.97
2019-04-11T17:07:19.906Z,100363.55
2019-04-11T17:09:49.536Z,100359.81
2019-04-11T17:12:18.781Z,100361.23
2019-04-11T17:14:48.007Z,100364.30
2019-04-11T17:17:17.104Z,100356.27
2019-04-11T17:19:46.210Z,100361.97
2019-04-11T17:22:16.848Z,100358.86
2019-04-11T17:24:48.142Z,100359.51
2019-04-11T17:27:17.604Z,100366.45
2019-04-11T17:29:46.820Z,100372.22
2019-04-11T17:32:16.071Z,100369.73
2019-04-11T17:34:45.393Z,100372.73
2019-04-11T17:37:14.623Z,100369.23
2019-04-11T17:39:44.232Z,100375.76
2019-04-11T17:42:13.994Z,100376.98
2019-04-11T17:44:43.272Z,100382.78
2019-04-11T17:47:12.563Z,100379.37
2019-04-11T17:49:41.859Z,100385.99
2019-04-11T17:52:11.133Z,100382.89
2019-04-11T17:54:40.365Z,100383.50
2019-04-11T17:57:09.499Z,100383.91
2019-04-11T17:59:38.805Z,100390.72
2019-04-11T18:02:10.416Z,100386.17
2019-04-11T18:04:43.992Z,100390.72
2019-04-11T18:07:11.103Z,100393.41
2019-04-11T18:09:40.250Z,100396.77
2019-04-11T18:12:09.523Z,100404.77
2019-04-11T18:14:38.729Z,100397.66
2019-04-11T18:17:07.908Z,100400.64
2019-04-11T18:19:37.175Z,100403.29
2019-04-11T18:22:08.010Z,100407.55
2019-04-11T18:24:37.557Z,100412.15
2019-04-11T18:27:06.708Z,100410.47
2019-04-11T18:29:35.933Z,100414.39
2019-04-11T18:32:05.202Z,100415.89
2019-04-11T18:34:34.416Z,100424.83
2019-04-11T18:37:03.590Z,100421.00
2019-04-11T18:39:35.924Z,100430.11
2019-04-11T18:42:05.391Z,100432.54
2019-04-11T18:44:34.477Z,100434.05
2019-04-11T18:47:03.582Z,100435.25
2019-04-11T18:49:33.873Z,100440.92
2019-04-11T18:52:03.017Z,100436.14
2019-04-11T18:54:32.087Z,100440.17
2019-04-11T18:57:01.357Z,100442.56
2019-04-11T18:59:33.824Z,100442.52
2019-04-11T19:02:01.344Z,100444.94
2019-04-11T19:04:32.781Z,100445.29
2019-04-11T19:07:01.149Z,100447.97
2019-04-11T19:09:30.334Z,100449.14
2019-04-11T19:11:59.721Z,100452.24
2019-04-11T19:14:28.774Z,100455.87
2019-04-11T19:16:57.965Z,100453.99
2019-04-11T19:19:27.601Z,100453.63
2019-04-11T19:21:56.872Z,100456.48
2019-04-11T19:24:35.094Z,100464.36
2019-04-11T19:26:56.946Z,100463.80
2019-04-11T19:29:26.085Z,100464.34
2019-04-11T19:31:55.291Z,100463.27
2019-04-11T19:34:24.506Z,100465.58
2019-04-11T19:36:53.784Z,100473.79
2019-04-11T19:39:23.274Z,100466.79
2019-04-11T19:41:52.384Z,100471.19
2019-04-11T19:44:21.442Z,100466.73
2019-04-11T19:46:51.613Z,100465.34
2019-04-11T19:49:20.829Z,100465.98
2019-04-11T19:51:50.907Z,100465.20
2019-04-11T19:54:20.167Z,100463.82
2019-04-11T19:56:57.198Z,100466.20
2019-04-11T19:59:26.403Z,100464.70
2019-04-11T20:01:55.743Z,100465.58
2019-04-11T20:04:24.884Z,100466.16
2019-04-11T20:06:54.156Z,100463.93
2019-04-11T20:09:23.309Z,100460.67
2019-04-11T20:11:52.511Z,100462.75
2019-04-11T20:14:21.797Z,100465.14
2019-04-11T20:16:52.089Z,100467.03
2019-04-11T20:19:21.312Z,100465.41
2019-04-11T20:21:50.362Z,100462.25
2019-04-11T20:24:19.730Z,100465.09
2019-04-11T20:26:50.301Z,100469.81
2019-04-11T20:29:21.375Z,100468.02
2019-04-11T20:31:50.463Z,100472.56
2019-04-11T20:34:27.392Z,100475.09
2019-04-11T20:36:50.581Z,100473.44
2019-04-11T20:39:19.963Z,100476.12
2019-04-11T20:41:53.212Z,100475.16
2019-04-11T20:44:19.888Z,100474.69
2019-04-11T20:46:48.949Z,100477.20
2019-04-11T20:49:18.049Z,100485.20
2019-04-11T20:51:47.188Z,100484.55
2019-04-11T20:54:16.390Z,100484.41
2019-04-11T20:56:45.406Z,100479.06
2019-04-11T20:59:14.562Z,100487.25
2019-04-11T21:01:43.908Z,100485.92
2019-04-11T21:04:13.072Z,100490.56
2019-04-11T21:06:42.307Z,100490.91
2019-04-11T21:09:12.503Z,100490.75
2019-04-11T21:11:41.735Z,100493.92
2019-04-11T21:14:10.820Z,100502.88
2019-04-11T21:16:40.105Z,100500.89
2019-04-11T21:19:09.277Z,100501.74
2019-04-11T21:21:38.505Z,100498.75
2019-04-11T21:24:07.815Z,100492.75
2019-04-11T21:26:37.045Z,100506.39
2019-04-11T21:29:06.335Z,100500.88
2019-04-11T21:31:35.443Z,100503.38
2019-04-11T21:34:04.700Z,100509.03
2019-04-11T21:36:34.018Z,100513.66
2019-04-11T21:39:03.817Z,100511.48
2019-04-11T21:41:36.088Z,100517.77
2019-04-11T21:44:06.113Z,100518.58
2019-04-11T21:46:38.082Z,100525.23
2019-04-11T21:49:07.064Z,100529.06
2019-04-11T21:51:36.098Z,100527.69
2019-04-11T21:54:05.315Z,100530.75
2019-04-11T21:56:34.565Z,100525.95
2019-04-11T21:59:03.714Z,100525.83
2019-04-11T22:01:33.167Z,100525.52
2019-04-11T22:04:02.397Z,100535.17
2019-04-11T22:06:31.565Z,100532.34
2019-04-11T22:09:04.834Z,100536.66
2019-04-11T22:11:32.128Z,100538.80
2019-04-11T22:14:01.162Z,100538.61
2019-04-11T22:16:30.283Z,100546.73
2019-04-11T22:18:59.385Z,100542.41
2019-04-11T22:21:28.682Z,100543.41
2019-04-11T22:23:57.871Z,100551.40
2019-04-11T22:26:26.982Z,100545.16
2019-04-11T22:28:56.365Z,100545.33
2019-04-11T22:31:25.701Z,100542.98
2019-04-11T22:34:00.230Z,100556.34
2019-04-11T22:36:30.592Z,100551.85
2019-04-11T22:39:01.047Z,100557.51
2019-04-11T22:41:30.643Z,100554.83
2019-04-11T22:43:59.730Z,100554.52
2019-04-11T22:46:28.783Z,100557.02
2019-04-11T22:48:57.948Z,100569.30
2019-04-11T22:51:27.169Z,100562.31
2019-04-11T22:54:00.545Z,100554.98
2019-04-11T22:56:27.141Z,100558.00
2019-04-11T22:58:56.221Z,100561.83
2019-04-11T23:01:25.491Z,100561.81
2019-04-11T23:03:58.112Z,100551.52
2019-04-11T23:06:27.272Z,100557.95
2019-04-11T23:08:56.567Z,100554.61
2019-04-11T23:11:26.903Z,100560.30
2019-04-11T23:13:55.960Z,100554.99
2019-04-11T23:16:25.131Z,100561.30
2019-04-11T23:18:54.519Z,100560.72
2019-04-11T23:21:23.583Z,100563.09
2019-04-11T23:23:52.911Z,100563.38
2019-04-11T23:26:22.038Z,100562.05
2019-04-11T23:28:51.299Z,100566.20
2019-04-11T23:31:21.084Z,100565.55
2019-04-11T23:33:52.015Z,100559.70
2019-04-11T23:36:21.864Z,100571.47
2019-04-11T23:38:52.727Z,100577.76
2019-04-11T23:41:22.334Z,100566.78
2019-04-11T23:43:51.444Z,100572.28
2019-04-11T23:46:21.465Z,100577.13
2019-04-11T23:48:54.578Z,100579.30
2019-04-11T23:51:25.465Z,100583.28
2019-04-11T23:53:52.846Z,100573.12
2019-04-11T23:56:21.909Z,100570.62
2019-04-11T23:58:50.984Z,100569.60
